Time;durP1;ratioP1;P1;durP2;ratioP2;P2;SDS_P1;SDS_P2;PMS_P1;PMS_P2;Temp;Humidity;BMP_temperature;BMP_pressure;BME280_temperature;BME280_humidity;BME280_pressure;Samples;Min_cycle;Max_cycle;Signal;HPM_P1;HPM_P2
2022/12/22 03:26:02;;;;;;;0.80;0.63;;;;;;;8.68;100.00;99416.97;687648;28;1373;-65
2022/12/22 03:26:22;;;;;;;1.53;0.90;;;;;;;8.64;100.00;99425.72;688337;28;1914;-64
2022/12/22 03:26:43;;;;;;;2.05;0.90;;;;;;;8.62;100.00;99422.31;687168;28;1420;-65
2022/12/22 03:27:03;;;;;;;1.65;0.95;;;;;;;8.59;100.00;99420.59;685883;28;1628;-65
2022/12/22 03:27:23;;;;;;;2.20;0.90;;;;;;;8.68;100.00;99423.06;686376;28;1425;-64
2022/12/22 03:27:44;;;;;;;2.60;1.00;;;;;;;8.66;100.00;99421.38;684681;28;4345;-65
2022/12/22 03:28:06;;;;;;;2.08;0.90;;;;;;;8.64;100.00;99425.72;685830;28;1606;-64
2022/12/22 03:28:27;;;;;;;2.08;0.85;;;;;;;8.60;100.00;99422.34;681123;28;1582;-65
2022/12/22 03:28:48;;;;;;;2.47;0.80;;;;;;;8.59;100.00;99422.38;682465;28;1477;-65
2022/12/22 03:29:08;;;;;;;3.53;1.00;;;;;;;8.65;100.00;99417.03;687703;28;1524;-64
2022/12/22 03:29:29;;;;;;;3.07;1.00;;;;;;;8.63;100.00;99421.44;687349;28;1564;-65
2022/12/22 03:29:51;;;;;;;4.37;1.30;;;;;;;8.60;100.00;99418.84;688215;28;1445;-64
2022/12/22 03:30:12;;;;;;;4.15;1.50;;;;;;;8.61;100.00;99424.06;687156;28;1822;-64
2022/12/22 03:30:33;;;;;;;4.95;1.50;;;;;;;8.61;100.00;99420.56;687424;28;7251;-65
2022/12/22 03:30:57;;;;;;;5.18;1.48;;;;;;;8.57;100.00;99417.19;685573;28;6918;-65
2022/12/22 03:31:18;;;;;;;4.35;1.20;;;;;;;8.57;100.00;99414.56;687284;28;1404;-65
2022/12/22 03:31:38;;;;;;;4.20;1.27;;;;;;;8.62;100.00;99417.94;687541;28;7244;-65
2022/12/22 03:31:58;;;;;;;2.95;1.00;;;;;;;8.69;100.00;99416.09;684091;28;1509;-64
2022/12/22 03:32:19;;;;;;;2.37;1.00;;;;;;;8.67;100.00;99410.91;685264;28;1457;-66
2022/12/22 03:32:39;;;;;;;2.03;1.00;;;;;;;8.75;100.00;99412.53;682892;28;7452;-64
2022/12/22 03:33:00;;;;;;;2.00;0.90;;;;;;;8.80;100.00;99416.78;682289;28;1029;-65
2022/12/22 03:33:20;;;;;;;1.93;0.90;;;;;;;8.81;100.00;99407.22;685224;28;1305;-64
2022/12/22 03:33:41;;;;;;;1.57;0.80;;;;;;;8.83;100.00;99414.13;684116;28;4324;-64
2022/12/22 03:34:01;;;;;;;1.20;0.80;;;;;;;8.85;100.00;99403.69;687379;28;909;-64
2022/12/22 03:34:22;;;;;;;1.40;0.70;;;;;;;8.81;100.00;99413.28;687147;28;1548;-64
2022/12/22 03:34:42;;;;;;;1.75;0.80;;;;;;;8.78;100.00;99402.91;687756;28;7293;-64
2022/12/22 03:35:03;;;;;;;1.37;0.80;;;;;;;8.75;100.00;99405.59;687714;28;1033;-65
2022/12/22 03:35:23;;;;;;;2.03;0.80;;;;;;;8.80;100.00;99401.13;687609;28;1595;-65
2022/12/22 03:35:44;;;;;;;1.55;0.80;;;;;;;8.90;100.00;99401.81;686756;28;1529;-64
2022/12/22 03:36:06;;;;;;;1.23;0.70;;;;;;;9.02;100.00;99403.34;686810;28;1074;-64
2022/12/22 03:36:26;;;;;;;1.05;0.60;;;;;;;9.10;100.00;99403.22;687118;28;1441;-64
2022/12/22 03:36:46;;;;;;;1.20;0.60;;;;;;;9.06;100.00;99404.19;686424;28;4801;-65
2022/12/22 03:37:07;;;;;;;0.80;0.60;;;;;;;8.96;100.00;99398.28;686498;28;1063;-65
2022/12/22 03:37:27;;;;;;;1.50;0.70;;;;;;;8.96;100.00;99398.28;687713;28;1583;-64
2022/12/22 03:37:47;;;;;;;1.17;0.67;;;;;;;8.93;100.00;99404.41;689139;28;1711;-65
2022/12/22 03:38:08;;;;;;;1.13;0.70;;;;;;;8.84;100.00;99397.59;688771;28;1087;-64
2022/12/22 03:38:28;;;;;;;1.20;0.67;;;;;;;8.90;100.00;99395.75;688339;28;1381;-64
2022/12/22 03:38:49;;;;;;;1.02;0.60;;;;;;;8.94;100.00;99397.44;688348;28;1373;-63
2022/12/22 03:39:09;;;;;;;1.50;0.70;;;;;;;8.92;100.00;99400.06;688154;28;5508;-63
2022/12/22 03:39:29;;;;;;;2.25;0.70;;;;;;;8.96;100.00;99395.66;687739;28;1417;-63
2022/12/22 03:39:49;;;;;;;2.23;0.80;;;;;;;8.96;100.00;99390.47;687500;28;4414;-63
2022/12/22 03:40:10;;;;;;;1.60;0.70;;;;;;;8.94;100.00;99392.22;688477;28;1209;-64
2022/12/22 03:40:31;;;;;;;2.35;0.60;;;;;;;8.88;100.00;99397.56;687336;28;1410;-64
2022/12/22 03:40:51;;;;;;;1.25;0.70;;;;;;;8.84;100.00;99394.97;688411;28;1382;-63
2022/12/22 03:46:29;;;;;;;1.37;0.70;;;;;;;8.78;100.00;99392.50;688914;28;1163;-64
2022/12/22 03:46:33;;;;;;;1.50;0.63;;;;;;;8.76;100.00;99393.41;687135;28;1959;-64
2022/12/22 03:46:53;;;;;;;1.90;0.70;;;;;;;8.73;100.00;99385.66;687033;28;1127;-64
2022/12/22 03:47:13;;;;;;;0.83;0.70;;;;;;;8.71;100.00;99393.50;686641;28;1048;-65
2022/12/22 03:47:34;;;;;;;0.60;0.60;;;;;;;8.67;100.00;99394.44;687654;28;7614;-64
2022/12/22 03:47:54;;;;;;;0.75;0.50;;;;;;;8.65;100.00;99388.38;687422;28;983;-64
2022/12/22 03:48:14;;;;;;;0.90;0.60;;;;;;;8.63;100.00;99392.78;687530;28;1312;-64
2022/12/22 03:48:35;;;;;;;1.33;0.60;;;;;;;8.62;100.00;99391.88;687676;28;777;-64
2022/12/22 03:49:08;;;;;;;0.97;0.67;;;;;;;8.60;100.00;99393.69;687716;28;4659;-64
2022/12/22 03:49:29;;;;;;;1.35;0.80;;;;;;;8.61;100.00;99398.00;688707;28;869;-64
2022/12/22 03:49:49;;;;;;;1.20;0.80;;;;;;;8.59;100.00;99388.50;687156;28;943;-64
2022/12/22 03:50:09;;;;;;;0.90;0.68;;;;;;;8.60;100.00;99392.78;688671;28;1444;-64
2022/12/22 03:50:30;;;;;;;1.50;0.80;;;;;;;8.63;100.00;99390.16;687982;28;1126;-64
2022/12/22 03:50:50;;;;;;;1.10;0.70;;;;;;;8.69;100.00;99390.03;687663;28;1007;-64
2022/12/22 03:51:10;;;;;;;1.60;0.80;;;;;;;8.68;100.00;99391.81;686351;28;1249;-64
2022/12/22 03:51:39;;;;;;;1.87;0.90;;;;;;;8.64;100.00;99387.53;687656;28;1109;-64
2022/12/22 03:52:00;;;;;;;1.45;0.50;;;;;;;8.66;100.00;99392.72;686750;28;5094;-63
2022/12/22 03:52:20;;;;;;;1.53;0.70;;;;;;;8.63;100.00;99384.97;687268;28;1581;-64
2022/12/22 03:52:40;;;;;;;0.90;0.70;;;;;;;8.62;100.00;99388.44;689459;28;1922;-64
2022/12/22 03:53:01;;;;;;;0.87;0.70;;;;;;;8.64;100.00;99384.94;687101;28;921;-64
2022/12/22 03:53:21;;;;;;;1.25;0.60;;;;;;;8.62;100.00;99386.69;687082;28;786;-65
2022/12/22 03:53:41;;;;;;;1.53;0.67;;;;;;;8.61;100.00;99389.31;689477;28;892;-64
2022/12/22 03:54:02;;;;;;;1.00;0.80;;;;;;;8.61;100.00;99387.59;686774;28;1317;-64
2022/12/22 03:54:24;;;;;;;1.70;0.70;;;;;;;8.65;100.00;99385.78;687661;28;1674;-63
2022/12/22 03:54:45;;;;;;;2.90;0.80;;;;;;;8.64;100.00;99386.66;687213;28;4517;-64
2022/12/22 03:55:05;;;;;;;0.88;0.65;;;;;;;8.62;100.00;99383.22;687295;28;1363;-63
2022/12/22 03:55:26;;;;;;;0.77;0.60;;;;;;;8.60;100.00;99379.78;688147;28;1198;-64
2022/12/22 03:55:46;;;;;;;0.73;0.60;;;;;;;8.59;100.00;99388.50;687748;28;1527;-64
2022/12/22 03:56:07;;;;;;;1.10;0.80;;;;;;;8.56;100.00;99383.34;687741;28;1121;-64
2022/12/22 03:56:27;;;;;;;1.80;0.80;;;;;;;8.56;100.00;99385.94;687693;28;1116;-64
2022/12/22 03:56:48;;;;;;;0.90;0.60;;;;;;;8.56;100.00;99385.94;686539;28;1358;-64
2022/12/22 03:57:08;;;;;;;1.27;0.70;;;;;;;8.56;100.00;99380.75;687266;28;1095;-64
2022/12/22 03:57:29;;;;;;;2.50;0.70;;;;;;;8.53;100.00;99386.84;687468;28;1262;-64
2022/12/22 03:57:49;;;;;;;1.77;0.70;;;;;;;8.51;100.00;99380.81;688114;28;4378;-65
2022/12/22 03:58:09;;;;;;;1.50;0.70;;;;;;;8.59;100.00;99385.91;686870;28;1135;-64
2022/12/22 03:58:30;;;;;;;1.13;0.70;;;;;;;8.65;100.00;99390.97;687293;28;1321;-64
2022/12/22 03:58:50;;;;;;;1.40;0.80;;;;;;;8.67;100.00;99382.25;687777;28;1190;-64
2022/12/22 03:59:11;;;;;;;2.15;0.70;;;;;;;8.66;100.00;99384.91;686891;28;1333;-66
2022/12/22 03:59:31;;;;;;;1.17;0.60;;;;;;;8.68;100.00;99377.91;688477;28;1454;-63
2022/12/22 03:59:51;;;;;;;1.10;0.60;;;;;;;8.67;100.00;99374.44;687543;28;1442;-64
2022/12/22 04:00:12;;;;;;;1.20;0.70;;;;;;;8.63;100.00;99382.34;686204;28;1373;-64
2022/12/22 04:00:33;;;;;;;1.38;0.80;;;;;;;8.74;100.00;99380.41;687186;28;1223;-64
2022/12/22 04:01:06;;;;;;;1.97;0.80;;;;;;;8.69;100.00;99379.63;686930;28;4573;-64
2022/12/22 04:01:27;;;;;;;1.50;0.70;;;;;;;8.69;100.00;99377.03;688631;28;1626;-64
2022/12/22 04:01:50;;;;;;;0.70;0.60;;;;;;;8.72;100.00;99376.97;686424;28;1168;-63
2022/12/22 04:02:11;;;;;;;0.98;0.70;;;;;;;8.77;100.00;99374.28;685547;28;1088;-64
2022/12/22 04:02:31;;;;;;;1.53;0.70;;;;;;;8.74;100.00;99375.19;684961;28;1336;-64
2022/12/22 04:02:51;;;;;;;2.30;0.65;;;;;;;8.77;100.00;99375.13;685236;28;1447;-63
2022/12/22 04:03:13;;;;;;;1.07;0.70;;;;;;;8.76;100.00;99377.78;686090;28;1234;-64
2022/12/22 04:03:33;;;;;;;0.98;0.60;;;;;;;8.74;100.00;99383.00;688206;28;1285;-64
2022/12/22 04:03:53;;;;;;;1.23;0.70;;;;;;;8.74;100.00;99377.81;687363;28;4592;-64
2022/12/22 04:04:16;;;;;;;1.60;0.73;;;;;;;8.68;100.00;99375.28;687212;28;1092;-64
2022/12/22 04:04:36;;;;;;;1.80;0.65;;;;;;;8.66;100.00;99377.94;686440;28;5736;-64
2022/12/22 04:04:57;;;;;;;1.20;0.70;;;;;;;8.64;100.00;99377.09;687500;28;1135;-64
2022/12/22 04:05:17;;;;;;;1.40;0.60;;;;;;;8.65;100.00;99371.03;687355;28;1336;-64
2022/12/22 04:05:37;;;;;;;1.07;0.67;;;;;;;8.63;100.00;99380.59;685116;28;1386;-64
2022/12/22 04:05:58;;;;;;;1.50;0.90;;;;;;;8.61;100.00;99378.91;684225;28;1196;-64
2022/12/22 04:06:19;;;;;;;1.80;0.70;;;;;;;8.58;100.00;99378.97;685072;28;2005;-64
2022/12/22 04:06:40;;;;;;;1.88;0.70;;;;;;;8.55;100.00;99382.47;684693;28;4373;-63
2022/12/22 04:07:00;;;;;;;1.75;0.70;;;;;;;8.55;100.00;99381.63;684977;28;966;-64
2022/12/22 04:07:21;;;;;;;1.30;0.60;;;;;;;8.52;100.00;99375.56;686900;28;892;-64
2022/12/22 04:07:41;;;;;;;1.05;0.65;;;;;;;8.61;100.00;99378.91;687429;28;821;-64
2022/12/22 04:08:01;;;;;;;1.30;0.70;;;;;;;8.60;100.00;99362.41;687685;28;975;-63
2022/12/22 04:08:22;;;;;;;1.30;0.70;;;;;;;8.60;100.00;99379.78;687689;28;920;-64
2022/12/22 04:08:42;;;;;;;1.87;0.80;;;;;;;8.58;100.00;99378.97;687211;28;1198;-64
2022/12/22 04:09:03;;;;;;;1.53;0.80;;;;;;;8.56;100.00;99371.16;688386;28;1041;-64
2022/12/22 04:09:25;;;;;;;1.90;0.80;;;;;;;8.56;100.00;99375.53;689336;28;975;-64
2022/12/22 04:13:01;;;;;;;1.20;0.68;;;;;;;8.71;100.00;99370.06;686483;28;4798;-64
2022/12/22 04:13:21;;;;;;;1.50;0.70;;;;;;;8.67;100.00;99363.16;688259;28;757;-64
2022/12/22 04:13:42;;;;;;;1.13;0.70;;;;;;;8.64;100.00;99369.28;688128;28;1004;-64
2022/12/22 04:14:02;;;;;;;1.30;0.70;;;;;;;8.63;100.00;99369.31;686277;28;1362;-64
2022/12/22 04:14:23;;;;;;;1.90;0.80;;;;;;;8.59;100.00;99376.31;689160;28;948;-64
2022/12/22 04:14:43;;;;;;;2.10;0.80;;;;;;;8.58;100.00;99364.16;687248;28;1492;-64
2022/12/22 04:15:04;;;;;;;2.17;0.80;;;;;;;8.57;100.00;99366.81;686241;28;1216;-64
2022/12/22 04:15:29;;;;;;;1.25;0.70;;;;;;;8.56;100.00;99370.31;686269;28;1202;-64
2022/12/22 04:15:49;;;;;;;2.20;0.70;;;;;;;8.55;100.00;99372.06;686857;28;4502;-65
2022/12/22 04:16:09;;;;;;;2.40;0.70;;;;;;;8.59;100.00;99367.66;686692;28;1036;-64
2022/12/22 04:16:30;;;;;;;2.08;0.65;;;;;;;8.58;100.00;99364.16;689313;28;916;-64
2022/12/22 04:16:51;;;;;;;1.60;0.80;;;;;;;8.57;100.00;99366.81;687875;28;1420;-64
2022/12/22 04:17:11;;;;;;;0.93;0.70;;;;;;;8.54;100.00;99362.50;688931;28;1073;-64
2022/12/22 04:17:31;;;;;;;0.98;0.73;;;;;;;8.54;100.00;99367.72;689131;28;865;-64
2022/12/22 04:17:52;;;;;;;1.07;0.70;;;;;;;8.51;100.00;99368.66;685875;28;1449;-64
2022/12/22 04:18:12;;;;;;;1.25;0.65;;;;;;;8.50;100.00;99366.94;685005;28;1430;-64
2022/12/22 04:18:33;;;;;;;0.97;0.70;;;;;;;8.48;100.00;99358.25;686123;28;912;-65
2022/12/22 04:18:55;;;;;;;1.35;0.80;;;;;;;8.49;100.00;99364.34;685057;28;4303;-64
2022/12/22 04:19:15;;;;;;;1.33;0.80;;;;;;;8.48;100.00;99358.25;685900;28;822;-65
2022/12/22 04:19:36;;;;;;;0.90;0.67;;;;;;;8.49;100.00;99354.78;688508;28;1428;-64
2022/12/22 04:19:56;;;;;;;2.22;0.70;;;;;;;8.51;100.00;99355.63;690235;28;1046;-64
2022/12/22 04:20:18;;;;;;;2.73;0.80;;;;;;;8.56;100.00;99344.28;691694;28;890;-64
2022/12/22 04:20:38;;;;;;;1.45;0.80;;;;;;;8.62;100.00;99344.16;690009;28;924;-64
2022/12/22 04:20:59;;;;;;;3.10;0.80;;;;;;;8.66;100.00;99346.66;689446;28;1165;-63
2022/12/22 04:21:19;;;;;;;1.98;0.70;;;;;;;8.68;100.00;99338.81;687922;28;1133;-64
2022/12/22 04:21:39;;;;;;;2.10;0.80;;;;;;;8.72;100.00;99342.25;687370;28;4344;-64
2022/12/22 04:22:00;;;;;;;1.80;0.85;;;;;;;8.75;100.00;99345.66;687776;28;1128;-64
2022/12/22 04:22:20;;;;;;;1.60;0.80;;;;;;;8.83;100.00;99341.16;688361;28;855;-64
2022/12/22 04:22:41;;;;;;;2.43;0.87;;;;;;;8.97;100.00;99342.63;687628;28;950;-64
2022/12/22 04:23:01;;;;;;;2.33;0.90;;;;;;;9.03;100.00;99337.31;686607;28;1054;-63
2022/12/22 04:23:22;;;;;;;1.05;0.77;;;;;;;9.02;100.00;99346.00;687951;28;1103;-64
2022/12/22 04:23:43;;;;;;;1.97;0.90;;;;;;;8.95;100.00;99342.66;688263;28;924;-64
2022/12/22 04:24:03;;;;;;;1.90;0.80;;;;;;;8.89;100.00;99341.91;686196;28;927;-65
2022/12/22 04:24:24;;;;;;;1.60;0.80;;;;;;;8.82;100.00;99342.03;687589;28;893;-64
2022/12/22 04:24:44;;;;;;;1.67;0.80;;;;;;;8.83;100.00;99338.56;684941;28;4578;-65
2022/12/22 04:25:05;;;;;;;2.13;0.80;;;;;;;8.84;100.00;99342.84;686205;28;1408;-65
2022/12/22 04:25:27;;;;;;;2.20;0.80;;;;;;;8.80;100.00;99337.75;687882;28;1662;-65
2022/12/22 04:25:47;;;;;;;1.42;0.80;;;;;;;8.78;100.00;99347.34;687427;28;1601;-65
2022/12/22 04:26:08;;;;;;;1.67;0.90;;;;;;;8.76;100.00;99344.75;688683;28;885;-64
2022/12/22 04:26:28;;;;;;;1.98;1.00;;;;;;;8.72;100.00;99345.69;688283;28;1960;-65
2022/12/22 04:26:51;;;;;;;2.00;0.97;;;;;;;8.74;100.00;99343.09;688056;28;924;-65
2022/12/22 04:27:12;;;;;;;2.55;1.10;;;;;;;8.72;100.00;99340.47;686282;28;1093;-65
2022/12/22 04:27:32;;;;;;;2.63;1.20;;;;;;;8.78;100.00;99345.59;688842;28;858;-65
2022/12/22 04:27:52;;;;;;;1.73;0.90;;;;;;;8.75;100.00;99350.88;686374;28;4463;-65
2022/12/22 04:28:13;;;;;;;1.95;0.90;;;;;;;8.72;100.00;99345.69;688004;28;1887;-64
2022/12/22 04:28:33;;;;;;;1.73;1.00;;;;;;;8.66;100.00;99346.66;687635;28;1497;-64
2022/12/22 04:28:54;;;;;;;1.70;1.00;;;;;;;8.74;100.00;99343.94;687870;28;1576;-64
2022/12/22 04:29:14;;;;;;;1.87;1.00;;;;;;;8.76;100.00;99346.50;688501;28;1450;-65
2022/12/22 04:29:35;;;;;;;2.25;1.00;;;;;;;8.73;100.00;99342.22;685806;28;1490;-65
2022/12/22 04:29:55;;;;;;;2.47;1.00;;;;;;;8.73;100.00;99346.56;685209;28;1242;-65
2022/12/22 04:30:18;;;;;;;2.15;1.00;;;;;;;8.68;100.00;99339.69;684156;28;1394;-64
2022/12/22 04:30:38;;;;;;;1.90;1.00;;;;;;;8.67;100.00;99339.72;684621;28;4772;-64
2022/12/22 04:30:59;;;;;;;1.50;0.90;;;;;;;8.64;100.00;99338.03;684012;28;1243;-65
2022/12/22 04:31:20;;;;;;;2.77;1.10;;;;;;;8.64;100.00;99340.63;685943;28;1248;-65
2022/12/22 04:31:41;;;;;;;3.08;1.13;;;;;;;8.62;100.00;99344.16;688001;28;1053;-67
2022/12/22 04:32:01;;;;;;;2.50;1.05;;;;;;;8.60;100.00;99346.78;686716;28;1231;-64
2022/12/22 04:32:22;;;;;;;1.67;0.90;;;;;;;8.62;100.00;99338.94;688437;28;1223;-64
2022/12/22 04:32:42;;;;;;;1.80;1.00;;;;;;;8.60;100.00;99332.88;689436;28;857;-66
2022/12/22 04:33:02;;;;;;;1.80;1.10;;;;;;;8.61;100.00;99342.44;688657;28;1088;-65
2022/12/22 04:33:23;;;;;;;2.33;1.10;;;;;;;8.58;100.00;99339.88;689203;28;987;-65
2022/12/22 04:33:44;;;;;;;1.97;1.10;;;;;;;8.57;100.00;99332.94;687339;28;4473;-65
2022/12/22 04:34:04;;;;;;;1.80;1.10;;;;;;;8.61;100.00;99332.00;687478;28;1311;-65
2022/12/22 04:34:24;;;;;;;2.40;1.00;;;;;;;8.61;100.00;99338.09;688795;28;1100;-65
2022/12/22 04:34:45;;;;;;;3.50;1.10;;;;;;;8.64;100.00;99334.53;689152;28;820;-65
2022/12/22 04:35:06;;;;;;;1.90;1.00;;;;;;;8.61;100.00;99334.59;687098;28;1378;-65
2022/12/22 04:35:26;;;;;;;1.77;1.00;;;;;;;8.58;100.00;99332.06;686937;28;1291;-65
2022/12/22 04:35:47;;;;;;;1.50;0.93;;;;;;;8.57;100.00;99330.34;688410;28;884;-65
2022/12/22 04:36:08;;;;;;;1.83;0.97;;;;;;;8.56;100.00;99333.84;688055;28;1066;-65
2022/12/22 04:36:28;;;;;;;3.05;1.00;;;;;;;8.54;100.00;99331.25;689000;28;927;-65
2022/12/22 04:36:49;;;;;;;2.47;1.10;;;;;;;8.54;100.00;99328.66;688300;28;4380;-65
2022/12/22 04:37:09;;;;;;;2.07;1.20;;;;;;;8.58;100.00;99338.13;688036;28;888;-65
2022/12/22 04:37:29;;;;;;;3.05;1.20;;;;;;;8.56;100.00;99328.66;688202;28;786;-65
2022/12/22 04:37:50;;;;;;;3.60;1.10;;;;;;;8.59;100.00;99329.44;688154;28;832;-65
2022/12/22 04:38:10;;;;;;;2.20;1.10;;;;;;;8.58;100.00;99332.91;688183;28;1101;-66
2022/12/22 04:38:30;;;;;;;1.83;1.10;;;;;;;8.58;100.00;99332.06;688969;28;875;-65
2022/12/22 04:38:53;;;;;;;2.13;1.07;;;;;;;8.56;100.00;99333.84;689231;28;6963;-65
2022/12/22 04:39:13;;;;;;;1.95;1.00;;;;;;;8.54;100.00;99325.19;688216;28;1005;-65
2022/12/22 04:39:34;;;;;;;2.53;1.10;;;;;;;8.52;100.00;99326.06;688771;28;932;-65
2022/12/22 04:39:54;;;;;;;2.10;1.10;;;;;;;8.52;100.00;99322.63;686103;28;4444;-66
2022/12/22 04:40:15;;;;;;;1.70;1.10;;;;;;;8.55;100.00;99321.72;688587;28;1270;-65
2022/12/22 04:40:35;;;;;;;1.75;1.15;;;;;;;8.55;100.00;99330.38;689320;28;1038;-65
2022/12/22 04:40:56;;;;;;;1.90;1.17;;;;;;;8.54;100.00;99320.84;689062;28;912;-65
2022/12/22 04:41:16;;;;;;;1.75;1.08;;;;;;;8.52;100.00;99325.22;687103;28;877;-65
2022/12/22 04:41:36;;;;;;;2.47;1.10;;;;;;;8.50;100.00;99320.03;689348;28;860;-65
2022/12/22 04:41:57;;;;;;;2.42;1.20;;;;;;;8.58;100.00;99327.69;689047;28;994;-65
2022/12/22 04:42:17;;;;;;;2.07;1.13;;;;;;;8.58;100.00;99322.50;688403;28;1030;-65
2022/12/22 04:42:38;;;;;;;2.30;1.10;;;;;;;8.55;100.00;99326.91;686723;28;4741;-65
2022/12/22 04:42:58;;;;;;;2.83;1.20;;;;;;;8.54;100.00;99320.84;687928;28;1346;-65
2022/12/22 04:43:19;;;;;;;2.28;1.00;;;;;;;8.52;100.00;99323.47;688406;28;797;-65
2022/12/22 04:43:39;;;;;;;2.97;1.20;;;;;;;8.54;100.00;99317.38;688597;28;769;-65
2022/12/22 04:43:59;;;;;;;4.05;1.35;;;;;;;8.51;100.00;99320.91;687757;28;1273;-65
2022/12/22 04:44:20;;;;;;;3.50;1.30;;;;;;;8.58;100.00;99327.69;686880;28;916;-65
2022/12/22 04:44:40;;;;;;;2.67;1.27;;;;;;;8.59;100.00;99328.59;685608;28;848;-65
2022/12/22 04:45:01;;;;;;;3.38;1.13;;;;;;;8.64;100.00;99318.91;686219;28;1073;-64
2022/12/22 04:45:21;;;;;;;3.83;1.17;;;;;;;8.66;100.00;99320.63;685880;28;1614;-65
2022/12/22 04:45:43;;;;;;;3.15;1.20;;;;;;;8.65;100.00;99318.03;686105;28;4340;-65
2022/12/22 04:46:03;;;;;;;2.53;1.20;;;;;;;8.62;100.00;99318.09;688575;28;996;-66
2022/12/22 04:46:24;;;;;;;1.73;1.03;;;;;;;8.60;100.00;99314.66;688819;28;2001;-65
2022/12/22 04:46:45;;;;;;;2.58;1.17;;;;;;;8.58;100.00;99326.84;687950;28;828;-65
2022/12/22 04:47:05;;;;;;;2.53;1.20;;;;;;;8.57;100.00;99319.91;688430;28;1233;-65
2022/12/22 04:47:25;;;;;;;2.10;1.20;;;;;;;8.54;100.00;99326.03;688181;28;1212;-65
2022/12/22 04:47:46;;;;;;;2.28;1.27;;;;;;;8.52;100.00;99323.47;689010;28;1193;-65
2022/12/22 04:48:06;;;;;;;2.00;1.20;;;;;;;8.54;100.00;99320.84;688437;28;1002;-65
2022/12/22 04:48:30;;;;;;;1.80;1.20;;;;;;;8.55;100.00;99321.72;689489;28;883;-65
2022/12/22 04:48:50;;;;;;;3.80;1.40;;;;;;;8.55;100.00;99321.72;688545;28;4361;-65
2022/12/22 04:49:10;;;;;;;5.03;1.40;;;;;;;8.55;100.00;99322.56;687979;28;902;-65
2022/12/22 04:49:31;;;;;;;3.38;1.33;;;;;;;8.54;100.00;99322.59;688264;28;856;-65
2022/12/22 04:49:54;;;;;;;2.27;1.20;;;;;;;8.52;100.00;99326.06;689138;28;916;-65
2022/12/22 04:50:14;;;;;;;2.80;1.48;;;;;;;8.50;100.00;99320.03;688451;28;1250;-66
2022/12/22 04:50:35;;;;;;;2.45;1.50;;;;;;;8.49;100.00;99328.75;688578;28;896;-66
2022/12/22 04:50:57;;;;;;;2.30;1.43;;;;;;;8.48;100.00;99321.81;688641;28;1346;-65
2022/12/22 04:51:17;;;;;;;2.47;1.33;;;;;;;8.49;100.00;99320.94;688722;28;876;-65
2022/12/22 04:51:38;;;;;;;2.80;1.40;;;;;;;8.48;100.00;99319.19;685683;28;4699;-65
2022/12/22 04:51:58;;;;;;;4.70;1.40;;;;;;;8.47;100.00;99325.31;687937;28;983;-66
2022/12/22 04:52:19;;;;;;;3.45;1.35;;;;;;;8.47;100.00;99322.72;688063;28;881;-65
2022/12/22 04:52:39;;;;;;;4.37;1.50;;;;;;;8.47;100.00;99320.09;687812;28;1162;-65
2022/12/22 04:52:59;;;;;;;3.88;1.42;;;;;;;8.46;100.00;99315.78;687582;28;923;-65
2022/12/22 04:53:20;;;;;;;2.33;1.30;;;;;;;8.44;100.00;99327.06;689423;28;845;-65
2022/12/22 04:53:41;;;;;;;2.97;1.40;;;;;;;8.44;100.00;99325.31;689442;28;1302;-65
2022/12/22 04:54:01;;;;;;;2.63;1.30;;;;;;;8.43;100.00;99322.75;689527;28;1083;-65
2022/12/22 04:54:21;;;;;;;3.97;1.40;;;;;;;8.42;100.00;99321.00;687568;28;1170;-65
2022/12/22 04:54:42;;;;;;;4.70;1.50;;;;;;;8.41;100.00;99317.56;688565;28;4385;-66
2022/12/22 04:55:03;;;;;;;4.60;1.57;;;;;;;8.41;100.00;99320.16;688120;28;1185;-67
2022/12/22 04:55:23;;;;;;;4.55;1.40;;;;;;;8.42;100.00;99319.28;688633;28;1725;-65
2022/12/22 04:55:53;;;;;;;4.70;1.40;;;;;;;8.43;100.00;99323.63;689122;28;750;-66
2022/12/22 04:56:14;;;;;;;2.70;1.50;;;;;;;8.46;100.00;99318.38;687942;28;1169;-65
2022/12/22 04:56:34;;;;;;;2.43;1.40;;;;;;;8.49;100.00;99317.47;688502;28;916;-65
2022/12/22 04:56:54;;;;;;;3.80;1.47;;;;;;;8.51;100.00;99319.16;687759;28;1490;-65
2022/12/22 04:57:15;;;;;;;3.90;1.60;;;;;;;8.53;100.00;99313.94;688349;28;1245;-65
2022/12/22 04:57:35;;;;;;;3.23;1.43;;;;;;;8.54;100.00;99314.78;689682;28;1337;-65
2022/12/22 04:57:56;;;;;;;3.42;1.42;;;;;;;8.54;100.00;99314.78;688325;28;4364;-66
2022/12/22 04:58:16;;;;;;;5.47;1.57;;;;;;;8.55;100.00;99319.09;687869;28;880;-65
2022/12/22 04:58:37;;;;;;;3.50;1.42;;;;;;;8.52;100.00;99315.66;688094;28;1328;-65
2022/12/22 04:58:57;;;;;;;2.50;1.50;;;;;;;8.59;100.00;99307.75;688158;28;1088;-65
2022/12/22 04:59:17;;;;;;;3.70;1.50;;;;;;;8.60;100.00;99312.03;689765;28;1463;-65
2022/12/22 04:59:38;;;;;;;3.40;1.50;;;;;;;8.62;100.00;99312.88;689630;28;1453;-65
2022/12/22 04:59:58;;;;;;;3.83;1.70;;;;;;;8.59;100.00;99316.41;687521;28;1096;-65
2022/12/22 05:00:18;;;;;;;4.90;1.60;;;;;;;8.58;100.00;99311.22;687653;28;995;-65
2022/12/22 05:00:39;;;;;;;4.13;1.50;;;;;;;8.59;100.00;99307.75;689271;28;4524;-65
2022/12/22 05:01:11;;;;;;;3.83;1.50;;;;;;;8.59;100.00;99307.75;687442;28;1409;-65
2022/12/22 05:01:31;;;;;;;3.92;1.48;;;;;;;8.57;100.00;99304.28;688099;28;888;-65
2022/12/22 05:01:52;;;;;;;4.10;1.45;;;;;;;8.55;100.00;99308.69;688944;28;954;-65
2022/12/22 05:02:12;;;;;;;3.70;1.40;;;;;;;8.54;100.00;99299.16;688258;28;1201;-65
2022/12/22 05:02:33;;;;;;;2.78;1.40;;;;;;;8.53;100.00;99308.72;686854;28;829;-65
2022/12/22 05:02:53;;;;;;;3.77;1.50;;;;;;;8.51;100.00;99307.88;685953;28;1272;-65
2022/12/22 05:03:13;;;;;;;3.77;1.60;;;;;;;8.52;100.00;99315.66;688613;28;1141;-65
2022/12/22 05:03:34;;;;;;;3.65;1.63;;;;;;;8.51;100.00;99311.34;689960;28;887;-64
2022/12/22 05:03:54;;;;;;;3.43;1.60;;;;;;;8.52;100.00;99301.78;687552;28;4379;-64
2022/12/22 05:04:15;;;;;;;2.95;1.65;;;;;;;8.50;100.00;99309.63;687629;28;1276;-65
2022/12/22 05:04:35;;;;;;;3.00;1.63;;;;;;;8.50;100.00;99307.03;687440;28;1727;-64
2022/12/22 05:04:55;;;;;;;3.15;1.60;;;;;;;8.50;100.00;99308.75;689907;28;1065;-65
2022/12/22 05:05:16;;;;;;;3.17;1.60;;;;;;;8.49;100.00;99307.91;687386;28;1423;-64
2022/12/22 05:05:37;;;;;;;3.23;1.70;;;;;;;8.48;100.00;99307.94;687553;28;1279;-64
2022/12/22 05:05:57;;;;;;;3.95;1.60;;;;;;;8.46;100.00;99305.34;689243;28;1250;-64
2022/12/22 05:06:18;;;;;;;3.50;1.67;;;;;;;8.46;100.00;99307.97;689138;28;1183;-65
2022/12/22 05:06:38;;;;;;;2.90;1.80;;;;;;;8.45;100.00;99311.44;688089;28;4480;-65
2022/12/22 05:06:58;;;;;;;2.93;1.67;;;;;;;8.45;100.00;99308.84;687553;28;1185;-64
2022/12/22 05:07:19;;;;;;;3.37;1.70;;;;;;;8.46;100.00;99304.47;688637;28;955;-64
2022/12/22 05:07:39;;;;;;;4.57;1.70;;;;;;;8.45;100.00;99310.59;688194;28;1273;-65
2022/12/22 05:08:00;;;;;;;4.75;1.80;;;;;;;8.44;100.00;99309.69;687871;28;1503;-64
2022/12/22 05:08:21;;;;;;;3.27;1.97;;;;;;;8.47;100.00;99308.81;687597;28;840;-64
2022/12/22 05:08:41;;;;;;;3.80;1.70;;;;;;;8.47;100.00;99308.81;689304;28;892;-64
2022/12/22 05:09:02;;;;;;;3.43;1.60;;;;;;;8.45;100.00;99311.44;687985;28;1289;-65
2022/12/22 05:09:22;;;;;;;3.45;1.70;;;;;;;8.44;100.00;99309.69;688646;28;1352;-64
2022/12/22 05:09:43;;;;;;;3.17;1.67;;;;;;;8.46;100.00;99309.69;687547;28;4737;-63
2022/12/22 05:10:04;;;;;;;2.87;1.67;;;;;;;8.46;100.00;99313.19;689441;28;1113;-63
2022/12/22 05:10:24;;;;;;;3.55;1.70;;;;;;;8.49;100.00;99305.28;688300;28;872;-64
2022/12/22 05:10:45;;;;;;;3.35;1.70;;;;;;;8.52;100.00;99307.84;688234;28;951;-63
2022/12/22 05:11:05;;;;;;;3.93;1.77;;;;;;;8.52;100.00;99313.06;688448;28;1218;-64
2022/12/22 05:11:26;;;;;;;4.05;1.80;;;;;;;8.51;100.00;99310.47;689355;28;1475;-63
2022/12/22 05:11:46;;;;;;;3.17;1.60;;;;;;;8.50;100.00;99308.75;688301;28;860;-63
2022/12/22 05:12:54;;;;;;;2.88;1.75;;;;;;;8.47;100.00;99306.22;687611;28;4590;-63
2022/12/22 05:13:14;;;;;;;3.40;1.73;;;;;;;8.45;100.00;99306.25;688070;28;1023;-63
2022/12/22 05:13:35;;;;;;;2.63;1.60;;;;;;;8.44;100.00;99299.28;687244;28;987;-64
2022/12/22 05:13:55;;;;;;;3.10;1.70;;;;;;;8.45;100.00;99308.84;689588;28;927;-64
2022/12/22 05:14:16;;;;;;;3.17;1.80;;;;;;;8.45;100.00;99306.25;688098;28;1304;-64
2022/12/22 05:14:36;;;;;;;3.75;1.90;;;;;;;8.44;100.00;99301.88;687392;28;1218;-64
2022/12/22 05:14:56;;;;;;;3.80;2.13;;;;;;;8.42;100.00;99301.06;687057;28;1048;-62
2022/12/22 05:15:17;;;;;;;3.33;1.90;;;;;;;8.43;100.00;99301.91;687408;28;1345;-64
2022/12/22 05:15:37;;;;;;;3.80;1.80;;;;;;;8.43;100.00;99309.72;687172;28;4398;-64